createdAt,value
2023-03-01T00:01:08.047Z,-1.54
2023-03-01T00:03:35.467Z,-1.58
2023-03-01T00:06:03.198Z,-1.61
2023-03-01T00:08:31.111Z,-1.61
2023-03-01T00:11:08.791Z,-1.64
2023-03-01T00:13:36.832Z,-1.68
2023-03-01T00:16:08.035Z,-1.70
2023-03-01T00:18:35.194Z,-1.75
2023-03-01T00:21:02.353Z,-1.76
2023-03-01T00:23:29.158Z,-1.84
2023-03-01T00:25:55.733Z,-1.84
2023-03-01T00:28:22.626Z,-1.84
2023-03-01T00:30:49.260Z,-1.88
2023-03-01T00:33:15.905Z,-1.89
2023-03-01T00:35:42.556Z,-1.89
2023-03-01T00:38:09.578Z,-1.92
2023-03-01T00:40:36.909Z,-1.97
2023-03-01T00:43:04.526Z,-1.92
2023-03-01T00:45:32.284Z,-1.95
2023-03-01T00:47:59.132Z,-2.01
2023-03-01T00:50:25.985Z,-2.03
2023-03-01T00:52:56.887Z,-2.00
2023-03-01T00:55:23.992Z,-2.06
2023-03-01T00:57:50.581Z,-2.02
2023-03-01T01:00:18.280Z,-2.04
2023-03-01T01:02:45.205Z,-2.08
2023-03-01T01:05:12.296Z,-2.09
2023-03-01T01:07:39.379Z,-2.06
2023-03-01T01:10:06.949Z,-2.10
2023-03-01T01:12:33.941Z,-2.19
2023-03-01T01:15:00.497Z,-2.12
2023-03-01T01:17:27.087Z,-2.22
2023-03-01T01:19:53.678Z,-2.19
2023-03-01T01:22:20.186Z,-2.22
2023-03-01T01:24:46.792Z,-2.25
2023-03-01T01:27:13.310Z,-2.26
2023-03-01T01:29:39.868Z,-2.29
2023-03-01T01:32:06.505Z,-2.27
2023-03-01T01:34:33.021Z,-2.31
2023-03-01T01:37:03.890Z,-2.30
2023-03-01T01:39:30.417Z,-2.30
2023-03-01T01:41:57.080Z,-2.30
2023-03-01T01:44:27.088Z,-2.34
2023-03-01T01:47:21.491Z,-2.36
2023-03-01T01:49:57.197Z,-2.38
2023-03-01T01:52:32.590Z,-2.37
2023-03-01T01:55:05.555Z,-2.43
2023-03-01T01:57:42.977Z,-2.47
2023-03-01T02:00:16.815Z,-2.44
2023-03-01T02:02:45.657Z,-2.46
2023-03-01T02:05:41.295Z,-2.48
2023-03-01T02:08:09.398Z,-2.58
2023-03-01T02:10:36.877Z,-2.58
2023-03-01T02:13:04.050Z,-2.57
2023-03-01T02:15:35.137Z,-2.62
2023-03-01T02:18:03.479Z,-2.59
2023-03-01T02:20:50.264Z,-2.58
2023-03-01T02:23:16.857Z,-2.65
2023-03-01T02:26:02.779Z,-2.60
2023-03-01T02:28:39.076Z,-2.62
2023-03-01T02:31:42.276Z,-2.67
2023-03-01T02:34:22.152Z,-2.72
2023-03-01T02:36:55.929Z,-2.74
2023-03-01T02:39:37.083Z,-2.69
2023-03-01T02:42:05.293Z,-2.69
2023-03-01T02:44:31.868Z,-2.72
2023-03-01T02:47:03.911Z,-2.77
2023-03-01T02:49:33.429Z,-2.81
2023-03-01T02:52:12.569Z,-2.87
2023-03-01T02:54:49.614Z,-2.80
2023-03-01T02:57:16.632Z,-2.81
2023-03-01T02:59:44.282Z,-2.83
2023-03-01T03:02:37.502Z,-2.81
2023-03-01T03:05:09.477Z,-2.88
2023-03-01T03:07:41.668Z,-2.84
2023-03-01T03:10:12.298Z,-2.85
2023-03-01T03:12:39.913Z,-2.92
2023-03-01T03:15:09.906Z,-2.90
2023-03-01T03:17:37.896Z,-2.97
2023-03-01T03:20:06.909Z,-2.93
2023-03-01T03:22:34.984Z,-2.96
2023-03-01T03:25:01.529Z,-2.98
2023-03-01T03:27:29.231Z,-3.04
2023-03-01T03:29:55.761Z,-3.05
2023-03-01T03:32:22.334Z,-3.07
2023-03-01T03:34:49.501Z,-3.02
2023-03-01T03:37:36.040Z,-3.03
2023-03-01T03:40:02.712Z,-3.08
2023-03-01T03:42:29.215Z,-3.08
2023-03-01T03:44:55.749Z,-3.09
2023-03-01T03:47:22.316Z,-3.14
2023-03-01T03:49:48.842Z,-3.08
2023-03-01T03:52:15.349Z,-3.08
2023-03-01T03:54:41.893Z,-3.14
2023-03-01T03:57:08.662Z,-3.10
2023-03-01T03:59:35.285Z,-3.13
2023-03-01T04:02:01.901Z,-3.15
2023-03-01T04:04:28.449Z,-3.21
2023-03-01T04:06:54.958Z,-3.29
2023-03-01T04:09:21.613Z,-3.17
2023-03-01T04:11:48.190Z,-3.28
2023-03-01T04:14:14.735Z,-3.23
2023-03-01T04:16:41.273Z,-3.27
2023-03-01T04:19:08.038Z,-3.25
2023-03-01T04:21:34.643Z,-3.22
2023-03-01T04:24:01.342Z,-3.30
2023-03-01T04:26:28.319Z,-3.27
2023-03-01T04:28:54.934Z,-3.37
2023-03-01T04:31:22.572Z,-3.29
2023-03-01T04:33:54.644Z,-3.32
2023-03-01T04:36:24.473Z,-3.41
2023-03-01T04:38:51.421Z,-3.35
2023-03-01T04:41:20.486Z,-3.35
2023-03-01T04:43:47.555Z,-3.39
2023-03-01T04:46:17.290Z,-3.41
2023-03-01T04:48:45.909Z,-3.41
2023-03-01T04:51:16.676Z,-3.45
2023-03-01T04:53:44.002Z,-3.43
2023-03-01T04:56:10.878Z,-3.46
2023-03-01T04:58:37.884Z,-3.46
2023-03-01T05:01:20.769Z,-3.45
2023-03-01T05:03:52.531Z,-3.42
2023-03-01T05:06:20.497Z,-3.43
2023-03-01T05:08:47.026Z,-3.46
2023-03-01T05:11:13.643Z,-3.49
2023-03-01T05:13:41.259Z,-3.44
2023-03-01T05:16:12.462Z,-3.47
2023-03-01T05:18:39.942Z,-3.49
2023-03-01T05:21:12.172Z,-3.52
2023-03-01T05:23:39.297Z,-3.56
2023-03-01T05:26:09.345Z,-3.51
2023-03-01T05:28:38.977Z,-3.55
2023-03-01T05:31:10.654Z,-3.52
2023-03-01T05:33:41.629Z,-3.55
2023-03-01T05:36:10.724Z,-3.58
2023-03-01T05:38:37.770Z,-3.53
2023-03-01T05:41:04.437Z,-3.59
2023-03-01T05:43:35.007Z,-3.57
2023-03-01T05:46:01.917Z,-3.61
2023-03-01T05:48:28.512Z,-3.57
2023-03-01T05:50:55.059Z,-3.56
2023-03-01T05:53:24.419Z,-3.62
2023-03-01T05:55:51.225Z,-3.61
2023-03-01T05:58:20.335Z,-3.65
2023-03-01T06:00:48.812Z,-3.67
2023-03-01T06:03:18.207Z,-3.75
2023-03-01T06:05:45.340Z,-3.69
2023-03-01T06:08:13.085Z,-3.71
2023-03-01T06:10:39.932Z,-3.65
2023-03-01T06:13:06.518Z,-3.63
2023-03-01T06:15:33.306Z,-3.59
2023-03-01T06:18:00.414Z,-3.53
2023-03-01T06:20:29.129Z,-3.51
2023-03-01T06:22:56.321Z,-3.41
2023-03-01T06:25:25.462Z,-3.36
2023-03-01T06:27:53.536Z,-3.18
2023-03-01T06:30:22.465Z,-3.01
2023-03-01T06:32:49.573Z,-2.90
2023-03-01T06:35:20.533Z,-2.76
2023-03-01T06:37:48.907Z,-2.72
2023-03-01T06:40:16.447Z,-2.68
2023-03-01T06:42:45.050Z,-2.69
2023-03-01T06:45:12.597Z,-2.71
2023-03-01T06:47:39.517Z,-2.67
2023-03-01T06:50:06.538Z,-2.72
2023-03-01T06:52:33.235Z,-2.72
2023-03-01T06:54:59.939Z,-2.73
2023-03-01T06:57:26.856Z,-2.72
2023-03-01T06:59:53.452Z,-2.74
2023-03-01T07:02:20.085Z,-2.62
2023-03-01T07:04:46.637Z,-2.62
2023-03-01T07:07:13.176Z,-2.56
2023-03-01T07:09:39.763Z,-2.52
2023-03-01T07:12:06.959Z,-2.48
2023-03-01T07:14:33.517Z,-2.47
2023-03-01T07:17:00.331Z,-2.46
2023-03-01T07:19:27.001Z,-2.46
2023-03-01T07:21:53.595Z,-2.52
2023-03-01T07:24:20.128Z,-2.56
2023-03-01T07:26:52.908Z,-2.55
2023-03-01T07:29:19.453Z,-2.49
2023-03-01T07:31:46.172Z,-2.36
2023-03-01T07:34:12.816Z,-2.39
2023-03-01T07:36:40.612Z,-2.32
2023-03-01T07:39:07.617Z,-2.32
2023-03-01T07:41:34.228Z,-2.26
2023-03-01T07:44:00.832Z,-2.22
2023-03-01T07:46:27.423Z,-2.22
2023-03-01T07:48:54.259Z,-2.17
2023-03-01T07:51:21.936Z,-2.07
2023-03-01T07:53:49.205Z,-2.03
2023-03-01T07:56:18.755Z,-1.90
2023-03-01T07:58:46.234Z,-1.73
2023-03-01T08:01:15.591Z,-1.70
2023-03-01T08:03:43.372Z,-1.73
2023-03-01T08:06:11.166Z,-1.78
2023-03-01T08:08:38.603Z,-1.72
2023-03-01T08:11:07.150Z,-1.70
2023-03-01T08:13:34.351Z,-1.52
2023-03-01T08:16:06.512Z,-1.48
2023-03-01T08:18:33.374Z,-1.32
2023-03-01T08:21:08.097Z,-1.21
2023-03-01T08:23:35.486Z,-1.13
2023-03-01T08:26:07.324Z,-1.09
2023-03-01T08:28:34.276Z,-0.91
2023-03-01T08:31:00.972Z,-0.87
2023-03-01T08:33:27.950Z,-0.78
2023-03-01T08:36:03.769Z,-0.75
2023-03-01T08:38:30.340Z,-0.75
2023-03-01T08:41:00.682Z,-0.74
2023-03-01T08:43:27.253Z,-0.56
2023-03-01T08:45:53.863Z,-0.42
2023-03-01T08:48:20.608Z,-0.22
2023-03-01T08:50:47.541Z,-0.05
2023-03-01T08:53:14.132Z,0.00
2023-03-01T08:55:40.688Z,0.19
2023-03-01T08:58:07.232Z,0.22
2023-03-01T09:00:35.875Z,0.34
2023-03-01T09:03:02.946Z,0.39
2023-03-01T09:05:33.109Z,0.59
2023-03-01T09:07:59.808Z,0.71
2023-03-01T09:10:26.754Z,0.81
2023-03-01T09:12:53.535Z,0.98
2023-03-01T09:15:20.187Z,0.95
2023-03-01T09:17:46.708Z,1.15
2023-03-01T09:20:13.273Z,1.18
2023-03-01T09:22:39.819Z,1.34
2023-03-01T09:25:06.984Z,1.60
2023-03-01T09:27:33.575Z,1.70
2023-03-01T09:30:00.124Z,1.84
2023-03-01T09:32:26.755Z,1.97
2023-03-01T09:35:04.533Z,2.09
2023-03-01T09:37:35.630Z,2.26
2023-03-01T09:40:04.770Z,2.25
2023-03-01T09:42:34.821Z,2.33
2023-03-01T09:45:05.915Z,2.33
2023-03-01T09:47:35.991Z,2.45
2023-03-01T09:50:17.899Z,2.55
2023-03-01T09:53:01.092Z,2.57
2023-03-01T09:55:44.023Z,2.72
2023-03-01T09:58:43.028Z,2.94
2023-03-01T10:01:47.244Z,2.91
2023-03-01T10:04:44.218Z,3.08
2023-03-01T10:07:10.739Z,3.01
2023-03-01T10:09:43.632Z,3.03
2023-03-01T10:12:17.774Z,3.10
2023-03-01T10:15:26.280Z,3.22
2023-03-01T10:18:01.280Z,3.28
2023-03-01T10:20:34.852Z,3.20
2023-03-01T10:23:02.207Z,3.23
2023-03-01T10:25:44.784Z,3.30
2023-03-01T10:28:20.592Z,3.39
2023-03-01T10:30:47.545Z,3.32
2023-03-01T10:33:38.415Z,3.41
2023-03-01T10:36:05.282Z,3.42
2023-03-01T10:38:48.473Z,3.47
2023-03-01T10:41:15.029Z,3.52
2023-03-01T10:43:54.612Z,3.61
2023-03-01T10:46:33.695Z,3.65
2023-03-01T10:49:15.703Z,3.75
2023-03-01T10:51:44.458Z,3.71
2023-03-01T10:54:24.761Z,3.96
2023-03-01T10:56:54.873Z,3.98
2023-03-01T10:59:31.976Z,4.04
2023-03-01T11:02:23.387Z,4.09
2023-03-01T11:05:16.143Z,4.23
2023-03-01T11:07:57.539Z,4.22
2023-03-01T11:10:36.008Z,4.32
2023-03-01T11:13:14.368Z,4.29
2023-03-01T11:15:41.086Z,4.38
2023-03-01T11:18:21.152Z,4.52
2023-03-01T11:20:48.304Z,4.52
2023-03-01T11:23:16.359Z,4.62
2023-03-01T11:26:00.998Z,4.63
2023-03-01T11:28:30.703Z,4.68
2023-03-01T11:31:08.522Z,4.74
2023-03-01T11:33:47.583Z,4.76
2023-03-01T11:36:47.731Z,4.81
2023-03-01T11:39:33.415Z,4.92
2023-03-01T11:42:26.184Z,4.84
2023-03-01T11:44:56.513Z,4.85
2023-03-01T11:47:44.552Z,4.85
2023-03-01T11:50:36.119Z,4.93
2023-03-01T11:53:21.333Z,5.00
2023-03-01T11:56:04.454Z,4.98
2023-03-01T11:58:36.992Z,4.97
2023-03-01T12:01:13.471Z,4.99
2023-03-01T12:04:08.246Z,5.02
2023-03-01T12:06:47.006Z,4.96
2023-03-01T12:09:24.963Z,4.94
2023-03-01T12:12:18.147Z,4.98
2023-03-01T12:15:09.096Z,5.00
2023-03-01T12:17:50.867Z,5.00
2023-03-01T12:20:23.277Z,4.96
2023-03-01T12:23:14.708Z,5.09
2023-03-01T12:25:46.025Z,5.07
2023-03-01T12:28:21.045Z,5.00
2023-03-01T12:30:53.439Z,5.04
2023-03-01T12:33:26.055Z,5.08
2023-03-01T12:35:59.794Z,5.22
2023-03-01T12:38:42.805Z,5.39
2023-03-01T12:41:15.299Z,5.45
2023-03-01T12:43:44.658Z,5.46
2023-03-01T12:46:30.671Z,5.42
2023-03-01T12:49:00.377Z,5.51
2023-03-01T12:51:32.095Z,5.52
2023-03-01T12:54:06.142Z,5.47
2023-03-01T12:56:39.154Z,5.41
2023-03-01T12:59:19.532Z,5.42
2023-03-01T13:02:05.250Z,5.55
2023-03-01T13:04:59.325Z,5.66
2023-03-01T13:07:28.944Z,5.59
2023-03-01T13:09:55.415Z,5.54
2023-03-01T13:12:49.960Z,5.63
2023-03-01T13:15:36.197Z,5.43
2023-03-01T13:18:28.330Z,5.59
2023-03-01T13:21:00.642Z,5.54
2023-03-01T13:23:30.907Z,5.69
2023-03-01T13:26:14.097Z,5.71
2023-03-01T13:28:42.142Z,5.60
2023-03-01T13:31:31.481Z,5.70
2023-03-01T13:34:02.545Z,5.66
2023-03-01T13:36:29.634Z,5.70
2023-03-01T13:39:00.610Z,5.68
2023-03-01T13:41:42.224Z,5.68
2023-03-01T13:44:34.457Z,5.76
2023-03-01T13:47:07.474Z,5.82
2023-03-01T13:49:46.641Z,5.74
2023-03-01T13:52:40.532Z,5.91
2023-03-01T13:55:43.225Z,5.89
2023-03-01T13:58:23.879Z,5.78
2023-03-01T14:01:01.399Z,5.79
2023-03-01T14:03:30.014Z,5.78
2023-03-01T14:06:17.240Z,5.83
2023-03-01T14:08:47.305Z,5.79
2023-03-01T14:11:35.682Z,5.81
2023-03-01T14:14:17.334Z,5.91
2023-03-01T14:16:46.944Z,5.83
2023-03-01T14:19:31.176Z,5.78
2023-03-01T14:22:05.282Z,5.86
2023-03-01T14:24:35.240Z,5.87
2023-03-01T14:27:02.856Z,5.86
2023-03-01T14:29:41.180Z,5.91
2023-03-01T14:32:21.791Z,5.83
2023-03-01T14:34:50.267Z,5.99
2023-03-01T14:37:23.601Z,6.01
2023-03-01T14:39:50.861Z,5.94
2023-03-01T14:42:18.509Z,6.03
2023-03-01T14:44:48.667Z,5.79
2023-03-01T14:47:20.841Z,5.86
2023-03-01T14:49:50.467Z,5.91
2023-03-01T14:52:26.557Z,5.85
2023-03-01T14:54:55.465Z,5.90
2023-03-01T14:57:24.754Z,5.90
2023-03-01T14:59:55.472Z,5.94
2023-03-01T15:02:26.329Z,6.06
2023-03-01T15:05:01.661Z,5.95
2023-03-01T15:07:32.507Z,6.02
2023-03-01T15:10:00.409Z,6.05
2023-03-01T15:12:29.899Z,6.02
2023-03-01T15:15:03.935Z,6.02
2023-03-01T15:17:37.234Z,5.93
2023-03-01T15:20:07.556Z,5.80
2023-03-01T15:22:34.508Z,5.79
2023-03-01T15:25:01.557Z,5.71
2023-03-01T15:27:28.649Z,5.73
2023-03-01T15:30:00.255Z,5.81
2023-03-01T15:32:37.078Z,5.76
2023-03-01T15:35:41.583Z,5.75
2023-03-01T15:38:26.979Z,5.79
2023-03-01T15:40:54.024Z,5.72
2023-03-01T15:43:47.404Z,5.54
2023-03-01T15:46:24.503Z,5.50
2023-03-01T15:48:55.680Z,5.69
2023-03-01T15:51:29.241Z,5.64
2023-03-01T15:53:56.133Z,5.51
2023-03-01T15:56:23.859Z,5.50
2023-03-01T15:58:50.471Z,5.52
2023-03-01T16:01:18.498Z,5.59
2023-03-01T16:03:45.592Z,5.48
2023-03-01T16:06:12.900Z,5.51
2023-03-01T16:08:39.867Z,5.36
2023-03-01T16:11:15.327Z,5.35
2023-03-01T16:13:42.080Z,5.19
2023-03-01T16:16:14.445Z,5.25
2023-03-01T16:18:41.069Z,5.16
2023-03-01T16:21:07.889Z,5.13
2023-03-01T16:23:34.472Z,5.03
2023-03-01T16:26:01.613Z,5.00
2023-03-01T16:28:29.436Z,5.05
2023-03-01T16:30:56.890Z,4.99
2023-03-01T16:33:28.092Z,4.88
2023-03-01T16:36:01.205Z,5.05
2023-03-01T16:38:27.887Z,5.03
2023-03-01T16:40:54.625Z,4.81
2023-03-01T16:43:21.284Z,4.80
2023-03-01T16:45:48.121Z,4.53
2023-03-01T16:48:15.400Z,4.63
2023-03-01T16:50:42.024Z,4.57
2023-03-01T16:53:08.797Z,4.54
2023-03-01T16:55:35.361Z,4.40
2023-03-01T16:58:02.532Z,4.34
2023-03-01T17:00:29.246Z,4.32
2023-03-01T17:02:55.955Z,4.32
2023-03-01T17:05:24.894Z,4.33
2023-03-01T17:07:52.029Z,4.13
2023-03-01T17:10:18.840Z,4.13
2023-03-01T17:12:45.489Z,4.04
2023-03-01T17:15:12.995Z,4.01
2023-03-01T17:17:39.731Z,3.98
2023-03-01T17:20:06.684Z,3.90
2023-03-01T17:22:33.264Z,3.80
2023-03-01T17:24:59.910Z,3.77
2023-03-01T17:27:26.635Z,3.67
2023-03-01T17:29:53.446Z,3.51
2023-03-01T17:32:20.109Z,3.33
2023-03-01T17:34:46.860Z,3.30
2023-03-01T17:37:13.475Z,3.14
2023-03-01T17:39:40.124Z,3.04
2023-03-01T17:42:07.133Z,3.01
2023-03-01T17:44:34.715Z,3.04
2023-03-01T17:47:03.613Z,3.00
2023-03-01T17:49:30.872Z,2.95
2023-03-01T17:51:57.793Z,2.91
2023-03-01T17:54:24.491Z,2.69
2023-03-01T17:56:51.561Z,2.78
2023-03-01T17:59:18.366Z,2.72
2023-03-01T18:01:45.259Z,2.70
2023-03-01T18:04:12.171Z,2.73
2023-03-01T18:06:40.668Z,2.69
2023-03-01T18:09:08.262Z,2.68
2023-03-01T18:11:35.638Z,2.68
2023-03-01T18:14:02.232Z,2.61
2023-03-01T18:16:31.844Z,2.54
2023-03-01T18:18:59.430Z,2.45
2023-03-01T18:21:26.118Z,2.34
2023-03-01T18:23:53.352Z,2.27
2023-03-01T18:26:22.196Z,2.24
2023-03-01T18:28:51.528Z,2.21
2023-03-01T18:31:22.262Z,2.21
2023-03-01T18:33:51.404Z,2.18
2023-03-01T18:36:27.101Z,2.15
2023-03-01T18:38:56.284Z,2.14
2023-03-01T18:41:25.183Z,2.03
2023-03-01T18:43:52.351Z,2.01
2023-03-01T18:46:20.377Z,1.97
2023-03-01T18:48:47.708Z,1.99
2023-03-01T18:51:17.765Z,2.04
2023-03-01T18:53:44.585Z,2.08
2023-03-01T18:56:12.363Z,2.05
2023-03-01T18:58:39.333Z,1.99
2023-03-01T19:01:08.272Z,2.03
2023-03-01T19:03:35.777Z,1.97
2023-03-01T19:06:02.440Z,2.02
2023-03-01T19:08:30.433Z,2.07
2023-03-01T19:10:58.870Z,2.06
2023-03-01T19:13:26.129Z,2.12
2023-03-01T19:15:53.638Z,1.85
2023-03-01T19:18:20.257Z,2.02
2023-03-01T19:20:50.556Z,1.99
2023-03-01T19:23:17.229Z,1.97
2023-03-01T19:25:43.770Z,1.93
2023-03-01T19:28:10.281Z,1.87
2023-03-01T19:30:38.031Z,1.83
2023-03-01T19:33:04.649Z,1.73
2023-03-01T19:35:33.784Z,1.71
2023-03-01T19:38:00.292Z,1.86
2023-03-01T19:40:26.852Z,1.79
2023-03-01T19:42:53.411Z,1.75
2023-03-01T19:45:25.285Z,1.55
2023-03-01T19:47:58.535Z,1.51
2023-03-01T19:50:25.063Z,1.39
2023-03-01T19:52:52.639Z,1.28
2023-03-01T19:55:19.194Z,1.40
2023-03-01T19:57:45.908Z,1.39
2023-03-01T20:00:12.813Z,1.33
2023-03-01T20:02:39.605Z,1.31
2023-03-01T20:05:06.353Z,1.28
2023-03-01T20:07:32.896Z,1.36
2023-03-01T20:09:59.584Z,1.35
2023-03-01T20:12:26.194Z,1.47
2023-03-01T20:14:55.419Z,1.45
2023-03-01T20:17:23.050Z,1.40
2023-03-01T20:19:49.662Z,1.49
2023-03-01T20:22:17.618Z,1.52
2023-03-01T20:24:44.514Z,1.59
2023-03-01T20:27:11.263Z,1.49
2023-03-01T20:29:38.273Z,1.61
2023-03-01T20:32:05.450Z,1.50
2023-03-01T20:34:32.078Z,1.44
2023-03-01T20:36:58.709Z,1.39
2023-03-01T20:39:25.282Z,1.33
2023-03-01T20:41:51.841Z,1.30
2023-03-01T20:44:18.434Z,1.19
2023-03-01T20:46:45.112Z,1.22
2023-03-01T20:49:11.797Z,1.12
2023-03-01T20:51:38.717Z,1.10
2023-03-01T20:54:05.461Z,1.13
2023-03-01T20:56:32.397Z,1.06
2023-03-01T20:58:59.140Z,1.07
2023-03-01T21:01:25.919Z,0.98
2023-03-01T21:03:52.702Z,0.96
2023-03-01T21:06:19.587Z,0.90
2023-03-01T21:08:46.619Z,0.86
2023-03-01T21:11:13.179Z,0.73
2023-03-01T21:13:41.720Z,0.69
2023-03-01T21:16:13.387Z,0.68
2023-03-01T21:18:40.647Z,0.61
2023-03-01T21:21:09.811Z,0.62
2023-03-01T21:23:38.404Z,0.66
2023-03-01T21:26:08.917Z,0.73
2023-03-01T21:28:36.814Z,0.69
2023-03-01T21:31:05.031Z,0.82
2023-03-01T21:33:31.985Z,0.77
2023-03-01T21:36:03.646Z,0.83
2023-03-01T21:38:36.880Z,0.79
2023-03-01T21:41:11.713Z,0.97
2023-03-01T21:43:40.038Z,0.98
2023-03-01T21:46:12.008Z,1.02
2023-03-01T21:48:41.818Z,1.03
2023-03-01T21:51:11.268Z,1.07
2023-03-01T21:53:38.338Z,1.13
2023-03-01T21:56:05.852Z,1.25
2023-03-01T21:58:32.529Z,1.20
2023-03-01T22:01:09.036Z,1.18
2023-03-01T22:03:45.130Z,1.14
2023-03-01T22:06:24.647Z,1.24
2023-03-01T22:08:58.089Z,1.18
2023-03-01T22:11:26.241Z,1.07
2023-03-01T22:13:55.452Z,1.11
2023-03-01T22:16:27.446Z,1.17
2023-03-01T22:18:55.165Z,1.20
2023-03-01T22:21:23.094Z,1.25
2023-03-01T22:23:49.657Z,1.13
2023-03-01T22:26:38.564Z,1.16
2023-03-01T22:29:09.313Z,1.17
2023-03-01T22:31:36.362Z,1.22
2023-03-01T22:34:04.053Z,1.20
2023-03-01T22:36:31.221Z,1.06
2023-03-01T22:39:01.855Z,1.10
2023-03-01T22:41:35.958Z,1.06
2023-03-01T22:44:02.860Z,1.07
2023-03-01T22:46:29.998Z,1.02
2023-03-01T22:48:57.062Z,1.14
2023-03-01T22:51:25.796Z,1.06
2023-03-01T22:53:52.682Z,1.04
2023-03-01T22:56:23.093Z,1.03
2023-03-01T22:58:49.743Z,0.94
2023-03-01T23:01:22.510Z,0.96
2023-03-01T23:03:49.743Z,0.89
2023-03-01T23:06:17.843Z,0.83
2023-03-01T23:08:48.489Z,0.89
2023-03-01T23:11:17.099Z,0.87
2023-03-01T23:13:44.088Z,0.83
2023-03-01T23:16:11.834Z,0.73
2023-03-01T23:18:38.819Z,0.83
2023-03-01T23:21:17.128Z,0.87
2023-03-01T23:23:46.505Z,0.81
2023-03-01T23:26:13.799Z,0.81
2023-03-01T23:28:40.607Z,0.84
2023-03-01T23:31:11.033Z,0.81
2023-03-01T23:33:40.471Z,0.99
2023-03-01T23:36:15.416Z,1.01
2023-03-01T23:38:42.124Z,0.96
2023-03-01T23:41:13.594Z,1.05
2023-03-01T23:43:40.393Z,1.07
2023-03-01T23:46:07.059Z,1.11
2023-03-01T23:48:33.912Z,1.13
2023-03-01T23:51:05.078Z,1.08
2023-03-01T23:53:31.840Z,1.11
2023-03-01T23:55:58.621Z,1.11
2023-03-01T23:58:28.599Z,1.19
